KBCT/BCT METAR and TAF weather

Enter ICAO airport designator
Station Type Date Time Source
KBCT METAR 2020/07/10 15:47 UTC NOAA

KBCT 101547Z 32010KT 10SM SCT035 33/24 A3000


Station Type Date Time Source
KBCT Decoded METAR 2020/07/10 15:47 UTC NOAA

Boca Raton, Boca Raton Airport, FL, United States (KBCT) 26-22-43N 080-06-28W
Jul 10, 2020 - 11:47 AM EDT / 2020.07.10 1547 UTC
Wind: from the NW (320 degrees) at 12 MPH (10 KT):0
Visibility: 10 mile(s):0
Sky conditions: partly cloudy
Temperature: 91 F (33 C)
Heat index: 101.5 F (38.6 C):1
Dew Point: 75 F (24 C)
Relative Humidity: 59%
Pressure (altimeter): 30 in. Hg (1015 hPa)
ob: KBCT 101547Z 32010KT 10SM SCT035 33/24 A3000
cycle: 16

Station Type Date Time Source
KBCT TAF 2020/02/03 18:20 UTC NOAA

TAF KBCT 031720Z 0318/0418 12005KT P6SM SKC
FM040000 VRB03KT P6SM SKC
FM041400 16011KT P6SM FEW030

Example: see airport list